createdAt,value
2022-12-11T00:00:02.415Z,1.39
2022-12-11T00:15:02.029Z,1.35
2022-12-11T00:30:01.739Z,1.35
2022-12-11T00:45:02.386Z,1.3
2022-12-11T01:00:02.029Z,1.3
2022-12-11T01:15:01.684Z,1.29
2022-12-11T01:30:02.356Z,1.29
2022-12-11T01:45:01.966Z,1.46
2022-12-11T02:00:01.624Z,1.28
2022-12-11T02:15:02.221Z,1.3
2022-12-11T02:30:01.978Z,1.29
2022-12-11T02:45:01.623Z,1.26
2022-12-11T03:00:02.263Z,1.23
2022-12-11T03:15:01.879Z,1.2
2022-12-11T03:30:02.560Z,1.2
2022-12-11T03:45:02.184Z,1.16
2022-12-11T04:00:01.844Z,1.26
2022-12-11T04:15:02.499Z,1.2
2022-12-11T04:30:02.167Z,1.04
2022-12-11T04:45:01.825Z,1.07
2022-12-11T05:00:02.456Z,1.04
2022-12-11T05:15:02.091Z,1.01
2022-12-11T05:30:02.345Z,0.96
2022-12-11T05:45:02.027Z,1.02
2022-12-11T06:00:01.667Z,0.84
2022-12-11T06:15:02.318Z,0.77
2022-12-11T06:30:01.985Z,0.79
2022-12-11T06:45:01.596Z,0.8
2022-12-11T07:00:02.230Z,0.79
2022-12-11T07:15:01.886Z,0.8
2022-12-11T07:30:01.606Z,0.81
2022-12-11T07:45:02.236Z,0.81
2022-12-11T08:00:01.873Z,0.79
2022-12-11T08:15:02.504Z,0.8
2022-12-11T08:30:02.215Z,0.79
2022-12-11T08:45:01.865Z,0.81
2022-12-11T09:00:02.520Z,0.74
2022-12-11T09:15:02.198Z,0.78
2022-12-11T09:30:01.857Z,0.8
2022-12-11T09:45:02.498Z,0.83
2022-12-11T10:00:05.156Z,0.87
2022-12-11T10:15:02.436Z,0.89
2022-12-11T10:30:02.102Z,0.88
2022-12-11T10:45:01.739Z,0.92
2022-12-11T11:00:02.384Z,0.9
2022-12-11T11:15:01.981Z,0.92
2022-12-11T11:30:01.657Z,1
2022-12-11T11:45:02.277Z,0.96
2022-12-11T12:00:01.932Z,1.01
2022-12-11T12:15:01.621Z,1.08
2022-12-11T12:30:02.324Z,1.09
2022-12-11T12:45:01.962Z,1.14
2022-12-11T13:00:01.662Z,1.21
2022-12-11T13:15:02.296Z,1.22
2022-12-11T13:30:01.995Z,1.21
2022-12-11T13:45:01.650Z,1.33
2022-12-11T14:00:02.313Z,1.24
2022-12-11T14:15:01.940Z,1.25
2022-12-11T14:30:01.612Z,1.26
2022-12-11T14:45:02.281Z,1.31
2022-12-11T15:00:01.975Z,1.2
2022-12-11T15:15:01.626Z,1.23
2022-12-11T15:30:02.322Z,1.18
2022-12-11T15:45:01.942Z,1.21
2022-12-11T16:00:01.722Z,1.19
2022-12-11T16:15:02.466Z,1.23
2022-12-11T16:30:02.138Z,1.21
2022-12-11T16:45:01.764Z,1.15
2022-12-11T17:00:02.411Z,1.18
2022-12-11T17:15:02.017Z,1.06
2022-12-11T17:30:01.739Z,1.13
2022-12-11T17:45:02.374Z,1.17
2022-12-11T18:00:02.049Z,1.11
2022-12-11T18:15:01.718Z,1.07
2022-12-11T18:30:02.441Z,1.09
2022-12-11T18:45:02.081Z,1.03
2022-12-11T19:00:01.771Z,1.01
2022-12-11T19:15:02.428Z,1.01
2022-12-11T19:30:02.052Z,1.02
2022-12-11T19:45:01.694Z,1.01
2022-12-11T20:00:02.340Z,1.05
2022-12-11T20:15:01.962Z,0.99
2022-12-11T20:30:01.691Z,0.99
2022-12-11T20:45:02.380Z,0.99
2022-12-11T21:00:02.010Z,0.99
2022-12-11T21:15:01.619Z,0.99
2022-12-11T21:30:02.303Z,0.98
2022-12-11T22:00:01.593Z,0.99
2022-12-11T22:15:02.199Z,0.95
2022-12-11T22:30:01.924Z,0.96
2022-12-11T22:45:01.585Z,0.95
2022-12-11T23:00:02.367Z,0.92
2022-12-11T23:15:02.013Z,0.9
2022-12-11T23:30:01.733Z,0.88
2022-12-11T23:45:02.421Z,0.9
